West Coast Vancouver Island South: Past 24 Hour Conditions

 

La Perouse Bank - 46206

09:00 PM PST 10 December 2017Buoy position: 48.83N 126.0W
Disclaimer

This table is a summary of hourly weather conditions for the past 24 hours.
Please note that these observations might not always be representative of weather conditions over their associated marine area.

Date / Time
(PST)
Wind(knots) Wave height(m) Wave period(s) Pressure(kPa) Air tempC) Water tempC)
10 December 2017
21:00 ESE 12 gust 16 2.1 10.0 102.4 10 10
20:00 ESE 16 gust 18 2.2 10.0 102.4 10 10
19:00 ESE 16 gust 19 2.1 10.0 102.4 10 10
18:00 ESE 16 gust 19 2.1 10.0 102.5 10 10
17:00 ESE 14 gust 18 2.2 10.0 102.6 10 10
16:00 E 16 gust 19 2.1 9.0 102.5 10 10
15:00 ESE 16 gust 19 2.4 9.0 102.6 10 10
14:00 ESE 18 gust 21 2.4 9.0 102.6 10 10
13:00 ESE 16 gust 19 2.4 11.0 102.7 10 10
12:00 ESE 18 gust 21 2.3 10.0 102.7 10 10
11:00 ESE 18 gust 21 2.5 11.0 102.8 10 10
10:00 ESE 21 gust 25 2.4 11.0 102.8 10 10
9:00 ESE 19 gust 23 2.5 10.0 102.8 10 10
8:00 ESE 21 gust 23 2.4 10.0 102.8 10 10
7:00 ESE 19 gust 21 2.4 11.0 102.7 10 10
6:00 ESE 18 gust 23 2.4 10.0 102.7 10 10
5:00 ESE 18 gust 21 2.6 9.0 102.8 10 10
4:00 ESE 18 gust 21 2.7 10.0 102.8 10 10
3:00 E 19 gust 23 2.5 10.0 102.8 10 10
2:00 E 19 gust 21 2.7 10.0 102.8 10 10
1:00 ESE 16 gust 19 2.5 10.0 102.8 10 10
0:00 ESE 18 gust 21 2.6 8.0 102.8 10 10
09 December 2017
23:00 E 21 gust 25 2.6 10.0 102.8 10 10
22:00 ESE 21 gust 25 2.8 9.0 102.7 9 10
21:00 ESE 19 gust 23 2.5 10.0 102.6 9 10

Zoom-in to make a selection

Map of Pacific - Georgia Basin marine weather areas Tsawwassen Ferry Terminal Sentry Shoal - 46131 Halibut Bank - 46146 La Perouse Bank - 46206 Discovery Island Esquimalt Harbour Kelp Reefs Malahat Race Rocks Lightstation Saturna Island Sheringham Point University of Victoria Victoria Gonzales Victoria Int'l Airport Ballenas Islands Campbell River Airport Comox Airport Entrance Island Fanny Island Nanaimo Airport Sisters Islets Estevan Point Tofino Airport Grief Point Powell River Airport Sechelt Point Atkinson Sand Heads Lightstation Vancouver Harbour Vancouver Int'l Airport West Vancouver Port Alberni Howe Sound - Pam Rocks Squamish Airport
Legend:
buoy Buoy
land station Land Station

Pacific - Georgia Basin Area

Another Region

What we are doing

Date modified: